createdAt,value
2022-11-15T00:01:03.800Z,9.60
2022-11-15T00:03:31.997Z,9.60
2022-11-15T00:06:04.133Z,9.60
2022-11-15T00:08:32.628Z,9.60
2022-11-15T00:11:01.744Z,9.70
2022-11-15T00:13:31.821Z,9.60
2022-11-15T00:16:00.776Z,9.60
2022-11-15T00:18:29.503Z,9.60
2022-11-15T00:20:58.029Z,9.60
2022-11-15T00:23:25.793Z,9.60
2022-11-15T00:25:58.628Z,9.60
2022-11-15T00:28:26.733Z,9.60
2022-11-15T00:30:56.264Z,9.60
2022-11-15T00:33:24.008Z,9.60
2022-11-15T00:35:51.843Z,9.60
2022-11-15T00:38:19.656Z,9.60
2022-11-15T00:40:47.420Z,9.60
2022-11-15T00:43:15.198Z,9.60
2022-11-15T00:46:07.233Z,9.60
2022-11-15T00:48:36.395Z,9.60
2022-11-15T00:51:04.294Z,9.60
2022-11-15T00:53:32.388Z,9.60
2022-11-15T00:56:00.614Z,9.60
2022-11-15T00:58:28.472Z,9.60
2022-11-15T01:00:56.375Z,9.60
2022-11-15T01:03:24.223Z,9.60
2022-11-15T01:05:53.400Z,9.60
2022-11-15T01:08:21.215Z,9.60
2022-11-15T01:10:49.056Z,9.60
2022-11-15T01:13:16.847Z,9.60
2022-11-15T01:15:44.849Z,9.60
2022-11-15T01:18:12.664Z,9.60
2022-11-15T01:20:42.765Z,9.60
2022-11-15T01:23:12.119Z,9.60
2022-11-15T01:25:40.037Z,9.60
2022-11-15T01:28:07.844Z,9.60
2022-11-15T01:30:37.538Z,9.60
2022-11-15T01:33:05.329Z,9.60
2022-11-15T01:35:33.124Z,9.60
2022-11-15T01:38:00.932Z,9.70
2022-11-15T01:40:30.092Z,9.70
2022-11-15T01:42:57.924Z,9.70
2022-11-15T01:45:25.750Z,9.70
2022-11-15T01:47:55.946Z,9.70
2022-11-15T01:50:28.773Z,9.70
2022-11-15T01:52:57.844Z,9.80
2022-11-15T01:55:29.006Z,9.70
2022-11-15T01:58:03.063Z,9.80
2022-11-15T02:00:31.634Z,9.80
2022-11-15T02:02:59.782Z,9.80
2022-11-15T02:05:27.752Z,9.80
2022-11-15T02:07:56.206Z,9.80
2022-11-15T02:10:25.868Z,9.80
2022-11-15T02:12:54.545Z,9.80
2022-11-15T02:15:26.233Z,9.80
2022-11-15T02:18:09.362Z,9.80
2022-11-15T02:20:58.059Z,9.80
2022-11-15T02:23:53.033Z,9.80
2022-11-15T02:26:37.345Z,9.80
2022-11-15T02:29:09.672Z,9.80
2022-11-15T02:31:46.366Z,9.80
2022-11-15T02:34:27.069Z,9.80
2022-11-15T02:37:03.353Z,9.80
2022-11-15T02:39:37.749Z,9.80
2022-11-15T02:42:29.733Z,9.80
2022-11-15T02:44:59.254Z,9.80
2022-11-15T02:47:31.937Z,9.80
2022-11-15T02:50:03.511Z,9.80
2022-11-15T02:52:31.328Z,9.90
2022-11-15T02:55:00.882Z,9.80
2022-11-15T02:57:39.293Z,9.90
2022-11-15T03:00:10.200Z,9.90
2022-11-15T03:03:06.885Z,9.90
2022-11-15T03:08:31.332Z,10.00
2022-11-15T03:11:07.925Z,10.00
2022-11-15T03:13:41.061Z,10.00
2022-11-15T03:16:16.715Z,10.00
2022-11-15T03:18:50.453Z,10.00
2022-11-15T03:21:20.746Z,10.00
2022-11-15T03:23:50.480Z,10.10
2022-11-15T03:26:20.684Z,10.10
2022-11-15T03:36:40.471Z,9.90
2022-11-15T03:39:10.484Z,9.80
2022-11-15T03:41:42.693Z,9.80
2022-11-15T03:44:17.852Z,9.80
2022-11-15T03:46:51.212Z,9.70
2022-11-15T03:49:25.146Z,9.70
2022-11-15T03:51:54.389Z,9.60
2022-11-15T03:54:22.170Z,9.60
2022-11-15T03:56:49.937Z,9.60
2022-11-15T03:59:17.722Z,9.60
2022-11-15T04:01:45.531Z,9.60
2022-11-15T04:04:13.520Z,9.60
2022-11-15T04:06:41.405Z,9.60
2022-11-15T04:09:10.657Z,9.60
2022-11-15T04:11:38.484Z,9.50
2022-11-15T04:14:06.291Z,9.50
2022-11-15T04:16:34.136Z,9.50
2022-11-15T04:19:19.551Z,9.50
2022-11-15T04:22:04.906Z,9.50
2022-11-15T04:24:33.988Z,9.50
2022-11-15T04:27:02.235Z,9.50
2022-11-15T04:29:36.190Z,9.60
2022-11-15T04:32:04.642Z,9.60
2022-11-15T04:34:32.662Z,9.50
2022-11-15T04:37:17.043Z,9.60
2022-11-15T04:39:48.556Z,9.50
2022-11-15T04:42:16.415Z,9.60
2022-11-15T04:44:44.206Z,9.60
2022-11-15T04:47:12.068Z,9.50
2022-11-15T04:49:39.918Z,9.50
2022-11-15T04:52:07.689Z,9.60
2022-11-15T04:54:35.471Z,9.60
2022-11-15T04:57:04.855Z,9.60
2022-11-15T04:59:32.642Z,9.50
2022-11-15T05:02:00.431Z,9.60
2022-11-15T05:04:27.395Z,9.60
2022-11-15T05:06:55.202Z,9.50
2022-11-15T05:09:23.119Z,9.60
2022-11-15T05:11:50.967Z,9.60
2022-11-15T05:14:20.124Z,9.60
2022-11-15T05:16:47.922Z,9.60
2022-11-15T05:19:15.838Z,9.60
2022-11-15T05:21:43.632Z,9.60
2022-11-15T05:24:12.939Z,9.60
2022-11-15T05:26:40.743Z,9.60
2022-11-15T05:29:08.708Z,9.60
2022-11-15T05:32:22.519Z,9.60
2022-11-15T05:34:52.019Z,9.60
2022-11-15T05:37:20.349Z,9.70
2022-11-15T05:39:48.728Z,9.70
2022-11-15T05:42:17.852Z,9.70
2022-11-15T05:44:49.326Z,9.70
2022-11-15T05:47:20.618Z,9.70
2022-11-15T05:49:52.752Z,9.70
2022-11-15T05:52:24.600Z,9.70
2022-11-15T05:57:50.967Z,9.70
2022-11-15T06:00:19.368Z,9.70
2022-11-15T06:02:47.140Z,9.70
2022-11-15T06:05:16.375Z,9.70
2022-11-15T06:07:45.096Z,9.70
2022-11-15T06:10:13.107Z,9.70
2022-11-15T06:12:40.980Z,9.70
2022-11-15T06:15:10.006Z,9.70
2022-11-15T06:17:37.817Z,9.60
2022-11-15T06:20:06.137Z,9.60
2022-11-15T06:22:35.268Z,9.60
2022-11-15T06:25:05.652Z,9.60
2022-11-15T06:27:33.789Z,9.60
2022-11-15T06:30:01.661Z,9.60
2022-11-15T06:32:31.393Z,9.60
2022-11-15T06:34:59.278Z,9.60
2022-11-15T06:37:27.034Z,9.60
2022-11-15T06:39:56.221Z,9.60
2022-11-15T06:42:24.121Z,9.60
2022-11-15T06:44:51.904Z,9.60
2022-11-15T06:47:19.643Z,9.70
2022-11-15T06:49:47.533Z,9.70
2022-11-15T06:52:15.295Z,9.70
2022-11-15T06:54:43.087Z,9.70
2022-11-15T06:57:12.389Z,9.70
2022-11-15T06:59:40.835Z,9.70
2022-11-15T07:02:14.098Z,9.70
2022-11-15T07:04:41.977Z,9.70
2022-11-15T07:07:09.873Z,9.80
2022-11-15T07:09:37.725Z,9.80
2022-11-15T07:12:07.893Z,9.80
2022-11-15T07:14:37.276Z,9.90
2022-11-15T07:17:05.854Z,9.90
2022-11-15T07:19:33.689Z,9.90
2022-11-15T07:22:01.505Z,10.00
2022-11-15T07:24:29.272Z,10.00
2022-11-15T07:26:57.364Z,10.00
2022-11-15T07:29:25.363Z,10.00
2022-11-15T07:31:54.685Z,10.00
2022-11-15T07:34:23.039Z,10.10
2022-11-15T07:36:51.225Z,10.10
2022-11-15T07:39:19.061Z,10.20
2022-11-15T07:41:48.984Z,10.10
2022-11-15T07:44:16.816Z,10.10
2022-11-15T07:46:44.577Z,10.20
2022-11-15T07:49:13.779Z,10.20
2022-11-15T07:51:41.580Z,10.20
2022-11-15T07:54:09.375Z,10.20
2022-11-15T07:56:37.176Z,10.30
2022-11-15T07:59:05.036Z,10.30
2022-11-15T08:01:32.995Z,10.40
2022-11-15T08:04:00.886Z,10.40
2022-11-15T08:06:30.056Z,10.40
2022-11-15T08:08:57.908Z,10.40
2022-11-15T08:11:26.380Z,10.40
2022-11-15T08:13:54.295Z,10.50
2022-11-15T08:16:22.240Z,10.60
2022-11-15T08:18:50.571Z,10.60
2022-11-15T08:21:22.743Z,10.70
2022-11-15T08:23:52.579Z,10.80
2022-11-15T08:26:20.470Z,10.80
2022-11-15T08:28:48.308Z,10.90
2022-11-15T08:31:17.814Z,11.00
2022-11-15T08:33:46.620Z,11.10
2022-11-15T08:36:16.567Z,11.20
2022-11-15T08:38:44.810Z,11.40
2022-11-15T08:41:18.216Z,11.50
2022-11-15T08:43:46.118Z,11.60
2022-11-15T08:46:15.652Z,11.60
2022-11-15T08:48:43.693Z,11.70
2022-11-15T08:51:11.660Z,11.80
2022-11-15T08:53:39.528Z,11.90
2022-11-15T08:56:10.179Z,12.00
2022-11-15T08:58:39.930Z,12.00
2022-11-15T09:01:08.046Z,12.10
2022-11-15T09:03:37.724Z,12.10
2022-11-15T09:06:05.909Z,12.20
2022-11-15T09:08:47.489Z,12.20
2022-11-15T09:11:21.279Z,12.30
2022-11-15T09:13:50.457Z,12.40
2022-11-15T09:16:18.312Z,12.40
2022-11-15T09:18:46.084Z,12.30
2022-11-15T09:21:14.712Z,12.30
2022-11-15T09:23:42.467Z,12.40
2022-11-15T09:26:10.344Z,12.40
2022-11-15T09:28:43.023Z,12.40
2022-11-15T09:31:12.415Z,12.40
2022-11-15T09:33:55.376Z,12.40
2022-11-15T09:36:30.142Z,12.40
2022-11-15T09:39:13.666Z,12.40
2022-11-15T09:42:18.039Z,12.50
2022-11-15T09:45:27.974Z,12.50
2022-11-15T09:48:20.221Z,12.50
2022-11-15T09:51:06.360Z,12.60
2022-11-15T09:57:29.692Z,12.60
2022-11-15T10:03:14.339Z,12.60
2022-11-15T10:05:44.150Z,12.60
2022-11-15T10:08:34.457Z,12.60
2022-11-15T10:13:55.609Z,12.70
2022-11-15T10:16:50.741Z,12.70
2022-11-15T10:19:25.655Z,12.70
2022-11-15T10:22:02.448Z,12.60
2022-11-15T10:24:36.384Z,12.60
2022-11-15T10:27:11.709Z,12.60
2022-11-15T10:29:44.923Z,12.60
2022-11-15T10:32:13.629Z,12.60
2022-11-15T10:34:43.761Z,12.60
2022-11-15T10:37:11.674Z,12.60
2022-11-15T10:39:42.109Z,12.60
2022-11-15T10:42:20.666Z,12.70
2022-11-15T10:44:48.728Z,12.70
2022-11-15T10:47:37.798Z,12.80
2022-11-15T10:50:28.269Z,12.80
2022-11-15T10:52:56.717Z,12.70
2022-11-15T10:55:28.965Z,12.80
2022-11-15T10:58:01.424Z,12.80
2022-11-15T11:00:32.923Z,12.90
2022-11-15T11:03:12.120Z,12.80
2022-11-15T11:05:43.230Z,12.90
2022-11-15T11:08:26.087Z,13.00
2022-11-15T11:11:03.392Z,13.00
2022-11-15T11:13:36.447Z,13.00
2022-11-15T11:16:20.188Z,13.10
2022-11-15T11:18:57.686Z,13.20
2022-11-15T11:21:39.645Z,13.30
2022-11-15T11:24:16.033Z,13.30
2022-11-15T11:26:51.713Z,13.40
2022-11-15T11:29:35.728Z,13.50
2022-11-15T11:32:25.105Z,13.50
2022-11-15T11:35:00.968Z,13.50
2022-11-15T11:37:37.294Z,13.60
2022-11-15T11:40:22.697Z,13.60
2022-11-15T11:43:00.116Z,13.70
2022-11-15T11:45:51.446Z,13.70
2022-11-15T11:48:32.235Z,13.70
2022-11-15T11:51:11.393Z,13.80
2022-11-15T11:53:46.433Z,13.80
2022-11-15T11:56:23.519Z,13.90
2022-11-15T11:58:54.876Z,13.90
2022-11-15T12:01:27.367Z,14.00
2022-11-15T12:03:59.306Z,14.00
2022-11-15T12:06:35.405Z,14.00
2022-11-15T12:09:14.511Z,14.10
2022-11-15T12:11:51.366Z,14.10
2022-11-15T12:14:33.536Z,14.20
2022-11-15T12:17:01.512Z,14.20
2022-11-15T12:19:31.128Z,14.20
2022-11-15T12:22:04.998Z,14.30
2022-11-15T12:24:40.031Z,14.30
2022-11-15T12:27:19.508Z,14.30
2022-11-15T12:29:53.288Z,14.40
2022-11-15T12:32:28.842Z,14.40
2022-11-15T12:34:57.937Z,14.40
2022-11-15T12:37:59.476Z,14.40
2022-11-15T12:40:35.135Z,14.50
2022-11-15T12:43:22.301Z,14.50
2022-11-15T12:45:50.087Z,14.50
2022-11-15T12:48:48.821Z,14.50
2022-11-15T12:51:16.857Z,14.60
2022-11-15T12:53:44.840Z,14.60
2022-11-15T12:56:24.977Z,14.60
2022-11-15T12:58:58.276Z,14.70
2022-11-15T13:02:08.820Z,14.80
2022-11-15T13:04:36.697Z,14.80
2022-11-15T13:07:08.436Z,14.90
2022-11-15T13:09:57.215Z,14.90
2022-11-15T13:12:52.201Z,14.90
2022-11-15T13:15:43.125Z,14.90
2022-11-15T13:18:35.089Z,14.80
2022-11-15T13:21:24.261Z,14.80
2022-11-15T13:23:55.406Z,14.90
2022-11-15T13:26:23.481Z,14.90
2022-11-15T13:28:55.684Z,14.90
2022-11-15T13:31:30.069Z,14.90
2022-11-15T13:34:01.498Z,14.90
2022-11-15T13:36:31.915Z,15.00
2022-11-15T13:39:02.969Z,15.00
2022-11-15T13:41:32.830Z,15.00
2022-11-15T13:44:03.446Z,15.10
2022-11-15T13:46:33.522Z,15.00
2022-11-15T13:49:04.566Z,15.10
2022-11-15T13:51:41.363Z,15.00
2022-11-15T13:54:21.295Z,15.00
2022-11-15T13:56:53.801Z,15.00
2022-11-15T13:59:27.129Z,14.90
2022-11-15T14:01:57.004Z,15.00
2022-11-15T14:04:27.173Z,15.10
2022-11-15T14:06:57.373Z,15.00
2022-11-15T14:09:36.840Z,14.90
2022-11-15T14:12:28.231Z,14.90
2022-11-15T14:14:57.831Z,14.80
2022-11-15T14:17:36.851Z,14.90
2022-11-15T14:20:20.065Z,14.90
2022-11-15T14:22:54.195Z,14.80
2022-11-15T14:25:23.431Z,14.80
2022-11-15T14:28:12.517Z,14.80
2022-11-15T14:30:42.644Z,14.80
2022-11-15T14:33:24.534Z,14.70
2022-11-15T14:35:53.107Z,14.70
2022-11-15T14:38:20.889Z,14.80
2022-11-15T14:40:49.246Z,14.70
2022-11-15T14:43:17.275Z,14.70
2022-11-15T14:45:46.496Z,14.60
2022-11-15T14:48:14.517Z,14.50
2022-11-15T14:50:59.566Z,14.60
2022-11-15T14:56:11.425Z,14.50
2022-11-15T14:58:46.108Z,14.40
2022-11-15T15:01:21.267Z,14.30
2022-11-15T15:03:49.417Z,14.20
2022-11-15T15:06:18.518Z,14.20
2022-11-15T15:08:46.894Z,14.10
2022-11-15T15:11:18.941Z,14.10
2022-11-15T15:13:46.848Z,14.00
2022-11-15T15:16:16.062Z,13.90
2022-11-15T15:18:44.124Z,13.90
2022-11-15T15:21:17.286Z,13.90
2022-11-15T15:23:45.632Z,13.90
2022-11-15T15:26:13.492Z,13.80
2022-11-15T15:28:41.846Z,13.70
2022-11-15T15:31:10.989Z,13.70
2022-11-15T15:33:40.329Z,13.70
2022-11-15T15:36:13.511Z,13.60
2022-11-15T15:38:42.261Z,13.60
2022-11-15T15:41:12.585Z,13.60
2022-11-15T15:43:41.241Z,13.60
2022-11-15T15:46:11.983Z,13.60
2022-11-15T15:48:41.640Z,13.50
2022-11-15T15:51:18.470Z,13.50
2022-11-15T15:53:48.275Z,13.50
2022-11-15T15:56:16.261Z,13.50
2022-11-15T15:58:44.098Z,13.40
2022-11-15T16:01:11.931Z,13.40
2022-11-15T16:03:41.128Z,13.30
2022-11-15T16:06:35.224Z,13.30
2022-11-15T16:09:18.223Z,13.20
2022-11-15T16:11:47.816Z,13.10
2022-11-15T16:14:15.610Z,13.10
2022-11-15T16:16:43.698Z,13.10
2022-11-15T16:19:13.571Z,13.10
2022-11-15T16:21:41.365Z,13.00
2022-11-15T16:24:09.213Z,12.90
2022-11-15T16:26:37.979Z,12.90
2022-11-15T16:29:08.090Z,12.80
2022-11-15T16:31:35.908Z,12.90
2022-11-15T16:34:03.791Z,12.80
2022-11-15T16:36:35.615Z,12.80
2022-11-15T16:39:05.133Z,12.80
2022-11-15T16:41:33.314Z,12.70
2022-11-15T16:44:01.342Z,12.70
2022-11-15T16:46:29.786Z,12.70
2022-11-15T16:48:57.851Z,12.60
2022-11-15T16:51:25.777Z,12.60
2022-11-15T16:53:55.019Z,12.60
2022-11-15T16:56:26.310Z,12.50
2022-11-15T16:58:54.616Z,12.50
2022-11-15T17:01:26.018Z,12.50
2022-11-15T17:03:54.664Z,12.50
2022-11-15T17:06:23.301Z,12.50
2022-11-15T17:08:51.092Z,12.50
2022-11-15T17:11:22.354Z,12.40
2022-11-15T17:13:50.412Z,12.40
2022-11-15T17:16:19.219Z,12.40
2022-11-15T17:18:51.704Z,12.40
2022-11-15T17:21:21.153Z,12.30
2022-11-15T17:23:49.253Z,12.30
2022-11-15T17:26:29.277Z,12.30
2022-11-15T17:29:01.740Z,12.30
2022-11-15T17:31:31.093Z,12.30
2022-11-15T17:33:58.909Z,12.30
2022-11-15T17:36:26.676Z,12.30
2022-11-15T17:38:59.307Z,12.20
2022-11-15T17:41:28.370Z,12.20
2022-11-15T17:43:58.149Z,12.20
2022-11-15T17:46:28.219Z,12.10
2022-11-15T17:48:56.879Z,12.10
2022-11-15T17:51:24.901Z,12.20
2022-11-15T17:53:53.272Z,12.30
2022-11-15T17:56:22.705Z,12.20
2022-11-15T17:58:51.739Z,12.30
2022-11-15T18:01:22.573Z,12.30
2022-11-15T18:03:52.446Z,12.30
2022-11-15T18:06:21.288Z,12.40
2022-11-15T18:08:50.938Z,12.40
2022-11-15T18:11:21.629Z,12.40
2022-11-15T18:13:52.554Z,12.50
2022-11-15T18:16:22.943Z,12.60
2022-11-15T18:18:52.563Z,12.60
2022-11-15T18:21:24.504Z,12.60
2022-11-15T18:23:56.739Z,12.60
2022-11-15T18:26:27.582Z,12.70
2022-11-15T18:28:57.506Z,12.70
2022-11-15T18:31:27.044Z,12.70
2022-11-15T18:33:56.792Z,12.70
2022-11-15T18:36:26.586Z,12.70
2022-11-15T18:38:56.328Z,12.70
2022-11-15T18:41:28.197Z,12.70
2022-11-15T18:43:56.620Z,12.70
2022-11-15T18:46:26.229Z,12.60
2022-11-15T18:48:56.414Z,12.60
2022-11-15T18:51:27.147Z,12.60
2022-11-15T18:53:55.814Z,12.50
2022-11-15T18:56:25.413Z,12.50
2022-11-15T18:58:55.239Z,12.50
2022-11-15T19:01:25.971Z,12.40
2022-11-15T19:03:56.644Z,12.40
2022-11-15T19:06:26.880Z,12.30
2022-11-15T19:08:56.846Z,12.30
2022-11-15T19:11:28.753Z,12.30
2022-11-15T19:13:59.110Z,12.30
2022-11-15T19:16:28.158Z,12.30
2022-11-15T19:18:59.201Z,12.30
2022-11-15T19:21:28.485Z,12.20
2022-11-15T19:23:56.395Z,12.20
2022-11-15T19:26:25.309Z,12.20
2022-11-15T19:28:56.128Z,12.20
2022-11-15T19:31:28.647Z,12.20
2022-11-15T19:34:00.466Z,12.30
2022-11-15T19:36:32.751Z,12.20
2022-11-15T19:39:08.029Z,12.20
2022-11-15T19:41:39.334Z,12.20
2022-11-15T19:44:07.861Z,12.10
2022-11-15T19:46:36.211Z,12.10
2022-11-15T19:49:09.851Z,12.00
2022-11-15T19:51:41.748Z,12.00
2022-11-15T19:54:10.419Z,12.00
2022-11-15T19:56:39.638Z,12.00
2022-11-15T19:59:07.685Z,12.00
2022-11-15T20:01:38.730Z,12.00
2022-11-15T20:04:09.962Z,12.00
2022-11-15T20:06:41.247Z,12.00
2022-11-15T20:09:12.188Z,12.00
2022-11-15T20:11:40.011Z,11.90
2022-11-15T20:14:09.564Z,11.90
2022-11-15T20:16:37.383Z,11.90
2022-11-15T20:19:05.488Z,11.90
2022-11-15T20:21:34.879Z,12.00
2022-11-15T20:24:03.082Z,11.90
2022-11-15T20:26:32.043Z,11.80
2022-11-15T20:29:04.575Z,11.80
2022-11-15T20:31:32.678Z,11.80
2022-11-15T20:34:02.714Z,11.80
2022-11-15T20:36:51.136Z,11.80
2022-11-15T20:39:39.785Z,11.80
2022-11-15T20:42:08.337Z,11.80
2022-11-15T20:44:36.137Z,11.70
2022-11-15T20:47:04.419Z,11.70
2022-11-15T20:49:33.356Z,11.70
2022-11-15T20:52:02.720Z,11.70
2022-11-15T20:54:30.631Z,11.70
2022-11-15T20:56:58.410Z,11.70
2022-11-15T20:59:26.251Z,11.60
2022-11-15T21:01:54.243Z,11.60
2022-11-15T21:04:22.453Z,11.60
2022-11-15T21:06:50.603Z,11.60
2022-11-15T21:09:37.130Z,11.60
2022-11-15T21:12:14.514Z,11.60
2022-11-15T21:14:44.020Z,11.60
2022-11-15T21:17:12.402Z,11.50
2022-11-15T21:19:40.240Z,11.50
2022-11-15T21:22:09.239Z,11.60
2022-11-15T21:24:38.444Z,11.50
2022-11-15T21:27:06.232Z,11.40
2022-11-15T21:29:41.017Z,11.50
2022-11-15T21:32:10.286Z,11.50
2022-11-15T21:34:38.845Z,11.40
2022-11-15T21:37:07.318Z,11.40
2022-11-15T21:39:35.113Z,11.40
2022-11-15T21:42:04.612Z,11.40
2022-11-15T21:44:32.825Z,11.40
2022-11-15T21:47:01.261Z,11.40
2022-11-15T21:49:29.152Z,11.40
2022-11-15T21:51:57.059Z,11.40
2022-11-15T21:54:24.915Z,11.40
2022-11-15T21:56:52.711Z,11.40
2022-11-15T21:59:21.940Z,11.30
2022-11-15T22:02:07.124Z,11.30
2022-11-15T22:04:35.017Z,11.30
2022-11-15T22:07:02.862Z,11.30
2022-11-15T22:09:30.657Z,11.30
2022-11-15T22:11:58.425Z,11.30
2022-11-15T22:14:27.580Z,11.30
2022-11-15T22:16:55.463Z,11.30
2022-11-15T22:19:23.351Z,11.30
2022-11-15T22:21:51.244Z,11.30
2022-11-15T22:24:19.578Z,11.30
2022-11-15T22:26:47.412Z,11.30
2022-11-15T22:29:15.226Z,11.30
2022-11-15T22:31:44.466Z,11.20
2022-11-15T22:34:12.399Z,11.30
2022-11-15T22:37:13.047Z,11.30
2022-11-15T22:39:33.255Z,11.30
2022-11-15T22:42:01.504Z,11.30
2022-11-15T22:44:29.418Z,11.30
2022-11-15T22:46:58.639Z,11.30
2022-11-15T22:49:26.556Z,11.20
2022-11-15T22:51:54.481Z,11.20
2022-11-15T22:54:22.311Z,11.20
2022-11-15T22:56:50.240Z,11.20
2022-11-15T22:59:18.120Z,11.20
2022-11-15T23:01:46.242Z,11.20
2022-11-15T23:04:15.548Z,11.20
2022-11-15T23:06:43.687Z,11.20
2022-11-15T23:09:11.708Z,11.20
2022-11-15T23:11:57.158Z,11.20
2022-11-15T23:14:25.259Z,11.20
2022-11-15T23:16:53.200Z,11.20
2022-11-15T23:19:22.750Z,11.20
2022-11-15T23:22:08.243Z,11.20
2022-11-15T23:24:36.246Z,11.20
2022-11-15T23:27:07.105Z,11.20
2022-11-15T23:29:57.402Z,11.20
2022-11-15T23:32:42.800Z,11.20
2022-11-15T23:35:12.502Z,11.20
2022-11-15T23:37:40.409Z,11.20
2022-11-15T23:40:09.536Z,11.20
2022-11-15T23:42:37.404Z,11.10
2022-11-15T23:45:06.068Z,11.10
2022-11-15T23:47:33.937Z,11.10
2022-11-15T23:50:01.973Z,11.10
2022-11-15T23:52:31.276Z,11.10
2022-11-15T23:54:59.127Z,11.10
2022-11-15T23:57:27.071Z,11.10
2022-11-15T23:59:55.239Z,11.10
